createdAt,value
2019-03-30T00:02:26.021Z,81.90
2019-03-30T00:04:54.703Z,81.80
2019-03-30T00:07:23.465Z,82.00
2019-03-30T00:09:52.105Z,82.10
2019-03-30T00:12:23.078Z,82.30
2019-03-30T00:14:50.923Z,82.60
2019-03-30T00:17:19.459Z,82.80
2019-03-30T00:19:48.041Z,82.70
2019-03-30T00:22:16.575Z,82.80
2019-03-30T00:24:45.204Z,83.20
2019-03-30T00:27:13.742Z,83.00
2019-03-30T00:29:42.413Z,83.40
2019-03-30T00:32:11.116Z,83.50
2019-03-30T00:34:39.654Z,83.40
2019-03-30T00:37:08.306Z,83.70
2019-03-30T00:39:36.960Z,83.80
2019-03-30T00:42:05.593Z,83.30
2019-03-30T00:44:34.116Z,83.60
2019-03-30T00:47:02.802Z,84.00
2019-03-30T00:49:31.651Z,84.80
2019-03-30T00:52:00.287Z,84.20
2019-03-30T00:54:28.988Z,84.20
2019-03-30T00:57:17.040Z,84.10
2019-03-30T00:59:47.693Z,84.10
2019-03-30T01:02:16.470Z,83.90
2019-03-30T01:04:45.166Z,84.20
2019-03-30T01:07:13.855Z,83.90
2019-03-30T01:09:42.539Z,84.40
2019-03-30T01:12:11.909Z,84.70
2019-03-30T01:14:40.454Z,85.00
2019-03-30T01:17:09.468Z,84.50
2019-03-30T01:19:40.805Z,84.60
2019-03-30T01:22:09.512Z,84.80
2019-03-30T01:24:38.045Z,84.80
2019-03-30T01:27:06.814Z,85.20
2019-03-30T01:29:35.426Z,85.20
2019-03-30T01:32:04.127Z,85.40
2019-03-30T01:34:35.507Z,85.70
2019-03-30T01:37:04.346Z,85.70
2019-03-30T01:39:35.921Z,85.50
2019-03-30T01:42:04.697Z,85.70
2019-03-30T01:44:33.259Z,86.20
2019-03-30T01:47:02.037Z,86.40
2019-03-30T01:49:30.585Z,86.10
2019-03-30T01:51:59.215Z,86.00
2019-03-30T01:54:27.787Z,86.00
2019-03-30T01:56:56.397Z,86.70
2019-03-30T01:59:25.022Z,86.30
2019-03-30T02:01:53.494Z,86.20
2019-03-30T02:04:22.134Z,86.20
2019-03-30T02:06:50.681Z,86.60
2019-03-30T02:09:19.321Z,86.50
2019-03-30T02:11:47.965Z,86.30
2019-03-30T02:14:16.602Z,86.90
2019-03-30T02:16:45.210Z,86.60
2019-03-30T02:19:13.944Z,87.40
2019-03-30T02:21:42.618Z,87.60
2019-03-30T02:24:11.307Z,87.40
2019-03-30T02:26:39.998Z,87.80
2019-03-30T02:29:08.542Z,87.50
2019-03-30T02:31:37.107Z,88.00
2019-03-30T02:34:05.727Z,87.20
2019-03-30T02:36:34.464Z,87.20
2019-03-30T02:39:03.704Z,87.60
2019-03-30T02:41:32.280Z,87.40
2019-03-30T02:44:00.927Z,87.50
2019-03-30T02:46:29.458Z,87.80
2019-03-30T02:48:58.099Z,87.60
2019-03-30T02:51:26.706Z,87.60
2019-03-30T02:53:55.484Z,87.10
2019-03-30T02:56:24.261Z,86.90
2019-03-30T02:58:52.816Z,87.30
2019-03-30T03:01:21.352Z,87.40
2019-03-30T03:03:50.070Z,87.60
2019-03-30T03:06:18.668Z,87.60
2019-03-30T03:08:47.578Z,87.50
2019-03-30T03:11:16.313Z,87.80
2019-03-30T03:13:44.975Z,88.00
2019-03-30T03:16:13.665Z,87.60
2019-03-30T03:18:42.388Z,87.60
2019-03-30T03:21:11.026Z,87.80
2019-03-30T03:23:39.608Z,87.70
2019-03-30T03:26:08.278Z,87.80
2019-03-30T03:28:36.919Z,88.00
2019-03-30T03:31:06.262Z,87.80
2019-03-30T03:33:34.998Z,87.80
2019-03-30T03:36:03.770Z,88.10
2019-03-30T03:38:32.378Z,88.00
2019-03-30T03:41:00.972Z,88.10
2019-03-30T03:43:29.515Z,88.30
2019-03-30T03:45:58.367Z,88.70
2019-03-30T03:48:27.031Z,88.40
2019-03-30T03:50:58.732Z,88.70
2019-03-30T03:53:27.442Z,88.40
2019-03-30T03:55:58.452Z,88.90
2019-03-30T03:58:30.083Z,88.70
2019-03-30T04:01:00.443Z,89.40
2019-03-30T04:03:31.592Z,89.00
2019-03-30T04:06:02.463Z,89.10
2019-03-30T04:08:32.042Z,89.10
2019-03-30T04:11:00.744Z,89.00
2019-03-30T04:13:30.339Z,89.00
2019-03-30T04:15:59.113Z,89.00
2019-03-30T04:18:27.751Z,89.00
2019-03-30T04:20:56.280Z,89.10
2019-03-30T04:23:24.977Z,89.70
2019-03-30T04:25:53.539Z,89.00
2019-03-30T04:28:22.182Z,89.40
2019-03-30T04:30:50.818Z,89.40
2019-03-30T04:33:19.385Z,90.00
2019-03-30T04:35:48.028Z,90.10
2019-03-30T04:38:16.584Z,90.00
2019-03-30T04:40:45.197Z,90.20
2019-03-30T04:43:13.759Z,90.10
2019-03-30T04:45:42.437Z,90.30
2019-03-30T04:48:11.075Z,90.10
2019-03-30T04:50:39.608Z,90.10
2019-03-30T04:53:08.175Z,90.20
2019-03-30T04:55:36.716Z,90.30
2019-03-30T04:58:06.377Z,90.20
2019-03-30T05:00:35.481Z,90.30
2019-03-30T05:03:04.115Z,90.40
2019-03-30T05:05:32.745Z,90.20
2019-03-30T05:08:01.366Z,90.20
2019-03-30T05:10:29.927Z,90.40
2019-03-30T05:12:58.594Z,90.50
2019-03-30T05:15:27.302Z,90.50
2019-03-30T05:17:55.901Z,90.60
2019-03-30T05:20:24.453Z,90.60
2019-03-30T05:22:52.990Z,90.60
2019-03-30T05:25:21.681Z,90.60
2019-03-30T05:27:50.153Z,90.50
2019-03-30T05:30:18.842Z,90.60
2019-03-30T05:32:47.507Z,90.40
2019-03-30T05:35:16.154Z,90.40
2019-03-30T05:37:44.838Z,90.10
2019-03-30T05:40:13.818Z,90.20
2019-03-30T05:42:42.443Z,90.00
2019-03-30T05:45:11.357Z,90.00
2019-03-30T05:47:39.913Z,89.60
2019-03-30T05:50:08.568Z,89.90
2019-03-30T05:52:37.149Z,89.60
2019-03-30T05:55:06.013Z,89.40
2019-03-30T05:57:34.479Z,89.90
2019-03-30T06:00:03.526Z,89.80
2019-03-30T06:02:32.106Z,89.60
2019-03-30T06:05:03.327Z,89.30
2019-03-30T06:07:30.913Z,89.00
2019-03-30T06:09:59.453Z,88.80
2019-03-30T06:12:28.039Z,88.40
2019-03-30T06:14:56.584Z,88.00
2019-03-30T06:17:25.146Z,87.80
2019-03-30T06:19:53.770Z,87.20
2019-03-30T06:22:22.420Z,86.50
2019-03-30T06:24:51.174Z,86.00
2019-03-30T06:27:19.908Z,86.00
2019-03-30T06:30:16.548Z,85.70
2019-03-30T06:32:46.017Z,85.10
2019-03-30T06:35:14.697Z,84.00
2019-03-30T06:37:43.413Z,83.30
2019-03-30T06:40:12.278Z,82.70
2019-03-30T06:42:40.928Z,81.70
2019-03-30T06:45:10.401Z,80.90
2019-03-30T06:47:39.040Z,81.00
2019-03-30T06:50:09.721Z,80.60
2019-03-30T06:52:41.194Z,80.00
2019-03-30T06:55:08.876Z,80.00
2019-03-30T06:57:37.511Z,79.60
2019-03-30T07:00:07.881Z,77.80
2019-03-30T07:02:37.298Z,76.70
2019-03-30T07:05:08.212Z,77.30
2019-03-30T07:07:38.608Z,76.10
2019-03-30T07:10:07.760Z,76.30
2019-03-30T07:12:40.701Z,75.40
2019-03-30T07:15:10.121Z,75.20
2019-03-30T07:17:41.799Z,75.20
2019-03-30T07:20:13.425Z,75.10
2019-03-30T07:22:42.061Z,74.70
2019-03-30T07:25:10.601Z,73.50
2019-03-30T07:27:39.267Z,72.80
2019-03-30T07:30:09.464Z,70.80
2019-03-30T07:32:38.016Z,69.20
2019-03-30T07:35:07.886Z,70.80
2019-03-30T07:37:36.509Z,70.90
2019-03-30T07:40:06.663Z,69.00
2019-03-30T07:42:35.249Z,68.90
2019-03-30T07:45:06.390Z,69.10
2019-03-30T07:47:35.140Z,67.90
2019-03-30T07:50:07.973Z,68.60
2019-03-30T07:52:36.626Z,68.00
2019-03-30T07:55:06.118Z,66.90
2019-03-30T07:57:34.764Z,67.80
2019-03-30T08:00:05.063Z,67.60
2019-03-30T08:02:33.632Z,66.40
2019-03-30T08:05:02.440Z,66.90
2019-03-30T08:07:30.990Z,66.50
2019-03-30T08:09:59.573Z,66.10
2019-03-30T08:12:28.154Z,65.10
2019-03-30T08:14:57.063Z,64.60
2019-03-30T08:17:25.643Z,64.90
2019-03-30T08:19:54.318Z,63.80
2019-03-30T08:22:22.883Z,61.90
2019-03-30T08:24:51.437Z,61.20
2019-03-30T08:27:19.923Z,59.60
2019-03-30T08:29:48.554Z,59.30
2019-03-30T08:32:17.166Z,58.50
2019-03-30T08:34:48.487Z,57.20
2019-03-30T08:37:17.038Z,57.70
2019-03-30T08:39:45.620Z,55.60
2019-03-30T08:42:14.321Z,55.20
2019-03-30T08:44:45.445Z,54.40
2019-03-30T08:47:14.263Z,53.00
2019-03-30T08:49:42.845Z,53.60
2019-03-30T08:52:11.409Z,53.30
2019-03-30T08:54:40.023Z,52.00
2019-03-30T08:59:58.941Z,47.70
2019-03-30T09:02:50.177Z,49.20
2019-03-30T09:05:16.312Z,48.30
2019-03-30T09:07:59.714Z,49.00
2019-03-30T09:10:24.450Z,49.80
2019-03-30T09:12:53.041Z,49.20
2019-03-30T09:15:22.310Z,47.40
2019-03-30T09:17:51.203Z,47.60
2019-03-30T09:20:21.440Z,46.30
2019-03-30T09:22:50.480Z,43.50
2019-03-30T09:25:19.113Z,44.70
2019-03-30T09:27:47.942Z,43.50
2019-03-30T09:30:25.114Z,44.70
2019-03-30T09:32:49.494Z,41.20
2019-03-30T09:35:18.204Z,43.90
2019-03-30T09:37:49.943Z,41.90
2019-03-30T09:40:18.630Z,41.90
2019-03-30T09:42:48.906Z,39.60
2019-03-30T09:45:17.544Z,42.10
2019-03-30T09:47:46.192Z,42.00
2019-03-30T09:50:14.882Z,37.60
2019-03-30T09:52:43.433Z,39.60
2019-03-30T09:55:12.237Z,38.10
2019-03-30T09:57:40.792Z,37.20
2019-03-30T10:00:09.967Z,38.30
2019-03-30T10:02:38.575Z,36.90
2019-03-30T10:05:07.404Z,37.30
2019-03-30T10:07:35.879Z,34.90
2019-03-30T10:10:06.105Z,36.20
2019-03-30T10:12:34.709Z,35.60
2019-03-30T10:15:04.018Z,36.00
2019-03-30T10:17:32.565Z,34.80
2019-03-30T10:20:04.738Z,34.40
2019-03-30T10:22:31.539Z,31.10
2019-03-30T10:25:00.282Z,30.90
2019-03-30T10:27:28.854Z,31.30
2019-03-30T10:29:57.369Z,34.10
2019-03-30T10:32:25.933Z,34.90
2019-03-30T10:34:54.561Z,31.20
2019-03-30T10:37:23.199Z,31.70
2019-03-30T10:39:51.719Z,29.90
2019-03-30T10:42:20.283Z,30.00
2019-03-30T10:44:48.973Z,30.70
2019-03-30T10:47:17.671Z,32.80
2019-03-30T10:49:46.223Z,31.50
2019-03-30T10:52:14.862Z,32.40
2019-03-30T10:54:52.535Z,30.10
2019-03-30T10:57:13.966Z,30.00
2019-03-30T10:59:42.601Z,29.20
2019-03-30T11:02:11.290Z,27.60
2019-03-30T11:04:40.056Z,29.70
2019-03-30T11:07:08.835Z,28.40
2019-03-30T11:09:37.554Z,30.00
2019-03-30T11:12:06.362Z,30.10
2019-03-30T11:14:34.975Z,31.80
2019-03-30T11:17:03.628Z,33.70
2019-03-30T11:19:32.339Z,32.40
2019-03-30T11:22:03.151Z,31.30
2019-03-30T11:24:31.290Z,29.30
2019-03-30T11:26:59.977Z,30.10
2019-03-30T11:29:28.726Z,27.90
2019-03-30T11:31:57.510Z,28.00
2019-03-30T11:34:27.754Z,29.70
2019-03-30T11:36:56.365Z,28.20
2019-03-30T11:39:24.996Z,27.90
2019-03-30T11:41:53.649Z,27.50
2019-03-30T11:44:22.389Z,29.50
2019-03-30T11:46:51.101Z,29.60
2019-03-30T11:49:19.789Z,29.70
2019-03-30T11:51:48.827Z,27.60
2019-03-30T11:54:17.435Z,26.70
2019-03-30T11:56:46.001Z,26.50
2019-03-30T11:59:14.613Z,26.10
2019-03-30T12:01:43.268Z,26.00
2019-03-30T12:04:11.935Z,25.70
2019-03-30T12:06:40.506Z,25.90
2019-03-30T12:09:09.688Z,26.60
2019-03-30T12:11:40.051Z,26.30
2019-03-30T12:14:08.567Z,25.70
2019-03-30T12:16:37.221Z,25.90
2019-03-30T12:19:05.882Z,25.80
2019-03-30T12:21:34.496Z,25.90
2019-03-30T12:24:03.126Z,25.20
2019-03-30T12:26:31.711Z,25.90
2019-03-30T12:29:00.265Z,24.40
2019-03-30T12:31:28.816Z,24.60
2019-03-30T12:33:57.509Z,23.80
2019-03-30T12:36:26.077Z,23.20
2019-03-30T12:38:54.725Z,24.00
2019-03-30T12:41:23.380Z,24.90
2019-03-30T12:43:52.089Z,24.80
2019-03-30T12:46:20.701Z,27.10
2019-03-30T12:48:49.290Z,25.80
2019-03-30T12:51:17.829Z,24.00
2019-03-30T12:53:50.463Z,22.50
2019-03-30T12:56:16.985Z,22.60
2019-03-30T12:58:45.608Z,26.70
2019-03-30T13:03:46.113Z,27.20
2019-03-30T13:06:14.578Z,27.10
2019-03-30T13:08:43.309Z,27.70
2019-03-30T13:11:12.065Z,26.10
2019-03-30T13:13:40.533Z,26.80
2019-03-30T13:16:09.168Z,26.20
2019-03-30T13:18:37.914Z,27.60
2019-03-30T13:21:06.573Z,26.70
2019-03-30T13:23:35.202Z,25.20
2019-03-30T13:26:04.387Z,24.60
2019-03-30T13:28:33.116Z,23.10
2019-03-30T13:31:02.000Z,26.10
2019-03-30T13:33:30.537Z,26.40
2019-03-30T13:35:59.368Z,27.00
2019-03-30T13:38:28.008Z,26.30
2019-03-30T13:40:57.079Z,26.30
2019-03-30T13:43:25.685Z,26.00
2019-03-30T13:45:54.336Z,26.90
2019-03-30T13:48:23.062Z,26.60
2019-03-30T13:50:52.006Z,25.30
2019-03-30T13:53:20.665Z,24.70
2019-03-30T13:55:49.337Z,22.80
2019-03-30T13:58:17.998Z,23.00
2019-03-30T14:00:46.757Z,25.80
2019-03-30T14:03:15.599Z,26.10
2019-03-30T14:05:44.433Z,25.50
2019-03-30T14:08:13.127Z,24.00
2019-03-30T14:10:41.842Z,26.50
2019-03-30T14:13:10.499Z,28.70
2019-03-30T14:15:39.042Z,29.70
2019-03-30T14:18:07.694Z,31.40
2019-03-30T14:20:36.395Z,30.70
2019-03-30T14:23:05.113Z,33.40
2019-03-30T14:25:33.788Z,34.80
2019-03-30T14:28:03.964Z,35.30
2019-03-30T14:30:32.642Z,35.60
2019-03-30T14:33:01.325Z,36.70
2019-03-30T14:35:30.135Z,36.60
2019-03-30T14:37:58.758Z,35.70
2019-03-30T14:40:27.548Z,35.80
2019-03-30T14:42:56.321Z,35.90
2019-03-30T14:45:24.946Z,35.80
2019-03-30T14:47:53.473Z,36.10
2019-03-30T14:50:22.078Z,36.20
2019-03-30T14:52:52.222Z,36.00
2019-03-30T14:55:25.993Z,36.20
2019-03-30T14:58:03.730Z,36.30
2019-03-30T15:00:32.526Z,36.30
2019-03-30T15:03:01.231Z,37.50
2019-03-30T15:05:29.823Z,37.90
2019-03-30T15:07:58.529Z,38.30
2019-03-30T15:10:27.176Z,37.90
2019-03-30T15:12:55.702Z,38.10
2019-03-30T15:15:24.392Z,36.00
2019-03-30T15:17:53.000Z,36.40
2019-03-30T15:20:21.738Z,36.80
2019-03-30T15:22:50.457Z,36.70
2019-03-30T15:25:19.204Z,37.90
2019-03-30T15:27:47.770Z,38.00
2019-03-30T15:30:20.005Z,36.50
2019-03-30T15:32:48.614Z,36.80
2019-03-30T15:35:17.293Z,38.10
2019-03-30T15:37:45.861Z,38.20
2019-03-30T15:40:14.626Z,38.50
2019-03-30T15:42:44.695Z,39.30
2019-03-30T15:45:13.261Z,38.60
2019-03-30T15:47:41.953Z,39.20
2019-03-30T15:50:11.149Z,39.50
2019-03-30T15:52:39.770Z,38.30
2019-03-30T15:55:08.758Z,38.30
2019-03-30T15:57:37.618Z,39.40
2019-03-30T16:00:08.423Z,38.80
2019-03-30T16:02:37.320Z,37.90
2019-03-30T16:05:07.214Z,38.30
2019-03-30T16:07:38.849Z,38.80
2019-03-30T16:10:07.726Z,38.30
2019-03-30T16:12:36.494Z,38.10
2019-03-30T16:15:06.199Z,38.60
2019-03-30T16:17:34.821Z,39.10
2019-03-30T16:20:05.674Z,38.00
2019-03-30T16:22:34.345Z,39.10
2019-03-30T16:25:04.138Z,38.60
2019-03-30T16:27:32.814Z,37.90
2019-03-30T16:30:01.477Z,38.50
2019-03-30T16:32:30.944Z,38.00
2019-03-30T16:34:59.528Z,37.70
2019-03-30T16:37:28.138Z,37.90
2019-03-30T16:39:56.730Z,38.00
2019-03-30T16:42:25.279Z,37.40
2019-03-30T16:44:53.836Z,37.40
2019-03-30T16:47:22.443Z,38.10
2019-03-30T16:49:51.103Z,37.50
2019-03-30T16:52:19.720Z,37.60
2019-03-30T16:54:48.283Z,38.00
2019-03-30T16:57:16.957Z,37.50
2019-03-30T16:59:45.505Z,38.50
2019-03-30T17:02:14.086Z,37.90
2019-03-30T17:04:42.700Z,38.80
2019-03-30T17:07:11.260Z,37.80
2019-03-30T17:09:39.947Z,38.50
2019-03-30T17:12:08.509Z,37.30
2019-03-30T17:14:37.148Z,37.70
2019-03-30T17:17:05.712Z,37.60
2019-03-30T17:19:34.331Z,37.30
2019-03-30T17:22:03.162Z,37.10
2019-03-30T17:24:31.695Z,39.20
2019-03-30T17:27:00.267Z,38.50
2019-03-30T17:29:28.885Z,39.40
2019-03-30T17:31:57.550Z,41.70
2019-03-30T17:34:26.087Z,41.80
2019-03-30T17:37:14.306Z,43.50
2019-03-30T17:39:45.399Z,43.10
2019-03-30T17:42:13.987Z,43.00
2019-03-30T17:44:42.483Z,43.70
2019-03-30T17:47:11.207Z,44.20
2019-03-30T17:49:39.853Z,44.60
2019-03-30T17:52:08.753Z,45.10
2019-03-30T17:54:39.811Z,45.50
2019-03-30T17:57:07.596Z,46.40
2019-03-30T17:59:36.145Z,46.10
2019-03-30T18:02:04.821Z,46.20
2019-03-30T18:04:33.505Z,46.60
2019-03-30T18:07:02.063Z,46.70
2019-03-30T18:09:30.674Z,46.80
2019-03-30T18:11:59.519Z,47.20
2019-03-30T18:14:28.471Z,47.40
2019-03-30T18:16:57.047Z,47.70
2019-03-30T18:19:25.724Z,48.10
2019-03-30T18:21:54.199Z,48.60
2019-03-30T18:24:23.690Z,49.20
2019-03-30T18:26:52.435Z,49.40
2019-03-30T18:29:21.281Z,49.70
2019-03-30T18:31:52.926Z,49.90
2019-03-30T18:34:21.801Z,50.50
2019-03-30T18:36:52.033Z,50.30
2019-03-30T18:39:20.891Z,50.60
2019-03-30T18:41:49.524Z,50.70
2019-03-30T18:44:18.319Z,51.10
2019-03-30T18:46:46.972Z,51.30
2019-03-30T18:49:15.627Z,51.70
2019-03-30T18:51:46.513Z,51.50
2019-03-30T18:54:15.697Z,51.80
2019-03-30T18:56:44.342Z,52.00
2019-03-30T18:59:12.948Z,51.90
2019-03-30T19:01:41.506Z,52.40
2019-03-30T19:04:10.184Z,51.60
2019-03-30T19:06:38.843Z,52.00
2019-03-30T19:09:07.961Z,52.30
2019-03-30T19:11:36.691Z,52.30
2019-03-30T19:14:05.396Z,52.50
2019-03-30T19:16:34.162Z,52.60
2019-03-30T19:19:03.487Z,52.90
2019-03-30T19:21:32.032Z,53.40
2019-03-30T19:24:00.598Z,53.10
2019-03-30T19:26:29.241Z,53.00
2019-03-30T19:28:58.179Z,52.90
2019-03-30T19:31:26.874Z,53.40
2019-03-30T19:33:55.451Z,53.70
2019-03-30T19:36:24.129Z,52.60
2019-03-30T19:39:15.270Z,51.70
2019-03-30T19:41:44.228Z,51.20
2019-03-30T19:44:12.788Z,51.50
2019-03-30T19:46:42.191Z,51.60
2019-03-30T19:49:10.752Z,51.90
2019-03-30T19:51:39.383Z,51.70
2019-03-30T19:54:08.022Z,51.60
2019-03-30T19:56:36.621Z,52.20
2019-03-30T19:59:10.919Z,52.40
2019-03-30T20:02:07.835Z,54.30
2019-03-30T20:04:36.471Z,53.30
2019-03-30T20:07:05.137Z,53.80
2019-03-30T20:12:09.135Z,54.60
2019-03-30T20:14:37.697Z,55.00
2019-03-30T20:17:06.548Z,54.80
2019-03-30T20:19:35.187Z,55.10
2019-03-30T20:22:23.713Z,55.50
2019-03-30T20:24:52.346Z,55.70
2019-03-30T20:27:20.952Z,56.30
2019-03-30T20:29:49.522Z,56.60
2019-03-30T20:32:18.215Z,56.90
2019-03-30T20:34:46.847Z,56.50
2019-03-30T20:37:15.345Z,56.60
2019-03-30T20:39:43.921Z,56.90
2019-03-30T20:42:12.581Z,57.00
2019-03-30T20:44:41.183Z,57.30
2019-03-30T20:47:09.796Z,57.60
2019-03-30T20:49:38.359Z,57.40
2019-03-30T20:52:07.032Z,57.80
2019-03-30T20:54:35.647Z,58.10
2019-03-30T20:57:23.591Z,58.20
2019-03-30T20:59:52.243Z,57.90
2019-03-30T21:02:20.854Z,58.50
2019-03-30T21:04:49.464Z,58.80
2019-03-30T21:07:18.150Z,58.90
2019-03-30T21:09:46.852Z,59.10
2019-03-30T21:12:15.401Z,59.10
2019-03-30T21:14:44.085Z,59.50
2019-03-30T21:17:12.646Z,59.50
2019-03-30T21:19:41.199Z,59.60
2019-03-30T21:22:09.870Z,60.30
2019-03-30T21:24:38.439Z,60.50
2019-03-30T21:27:07.131Z,61.00
2019-03-30T21:29:35.762Z,60.90
2019-03-30T21:32:04.405Z,61.00
2019-03-30T21:34:32.982Z,61.70
2019-03-30T21:37:01.593Z,61.40
2019-03-30T21:39:30.108Z,61.90
2019-03-30T21:41:58.651Z,62.10
2019-03-30T21:44:27.308Z,62.30
2019-03-30T21:46:55.924Z,62.40
2019-03-30T21:49:24.587Z,62.60
2019-03-30T21:51:53.193Z,63.10
2019-03-30T21:54:21.767Z,63.20
2019-03-30T21:56:50.316Z,63.30
2019-03-30T21:59:18.977Z,63.20
2019-03-30T22:01:47.511Z,63.80
2019-03-30T22:04:16.124Z,63.90
2019-03-30T22:06:44.845Z,64.20
2019-03-30T22:09:13.509Z,64.40
2019-03-30T22:11:42.179Z,64.80
2019-03-30T22:14:10.713Z,64.90
2019-03-30T22:16:39.347Z,64.50
2019-03-30T22:19:09.490Z,65.00
2019-03-30T22:21:38.055Z,65.00
2019-03-30T22:24:06.617Z,65.50
2019-03-30T22:26:35.112Z,65.50
2019-03-30T22:29:03.862Z,65.50
2019-03-30T22:31:32.415Z,65.70
2019-03-30T22:34:01.032Z,65.50
2019-03-30T22:36:29.589Z,65.40
2019-03-30T22:38:58.204Z,64.80
2019-03-30T22:41:26.780Z,65.70
2019-03-30T22:43:55.326Z,65.90
2019-03-30T22:46:23.970Z,66.10
2019-03-30T22:48:52.497Z,66.10
2019-03-30T22:51:21.203Z,66.20
2019-03-30T22:53:49.707Z,66.50
2019-03-30T22:56:18.384Z,66.50
2019-03-30T22:58:46.913Z,67.10
2019-03-30T23:01:17.267Z,67.00
2019-03-30T23:03:45.988Z,67.20
2019-03-30T23:06:14.621Z,67.30
2019-03-30T23:08:43.341Z,67.30
2019-03-30T23:11:11.896Z,67.40
2019-03-30T23:13:40.367Z,67.30
2019-03-30T23:16:09.018Z,67.70
2019-03-30T23:18:37.718Z,67.50
2019-03-30T23:21:06.349Z,67.50
2019-03-30T23:23:34.898Z,67.70
2019-03-30T23:26:03.531Z,68.30
2019-03-30T23:28:32.060Z,67.60
2019-03-30T23:31:00.633Z,68.30
2019-03-30T23:33:29.381Z,68.90
2019-03-30T23:35:58.021Z,68.10
2019-03-30T23:38:26.560Z,68.20
2019-03-30T23:40:55.332Z,68.40
2019-03-30T23:43:23.946Z,67.90
2019-03-30T23:45:52.501Z,68.50
2019-03-30T23:48:21.049Z,68.20
2019-03-30T23:50:49.683Z,68.20
2019-03-30T23:53:18.489Z,68.30
2019-03-30T23:55:47.141Z,68.30
2019-03-30T23:58:15.685Z,68.20
